createdAt,value
2018-05-01T00:00:09.915Z,14.20
2018-05-01T00:02:38.167Z,14.20
2018-05-01T00:05:06.450Z,14.20
2018-05-01T00:07:34.704Z,14.20
2018-05-01T00:10:02.952Z,14.10
2018-05-01T00:12:32.729Z,14.00
2018-05-01T00:15:01.016Z,14.00
2018-05-01T00:17:29.315Z,14.00
2018-05-01T00:19:57.564Z,13.80
2018-05-01T00:22:25.876Z,13.80
2018-05-01T00:24:54.162Z,13.80
2018-05-01T00:27:22.426Z,13.80
2018-05-01T00:29:50.714Z,13.70
2018-05-01T00:32:19.793Z,13.60
2018-05-01T00:34:48.080Z,13.50
2018-05-01T00:37:16.350Z,13.60
2018-05-01T00:39:44.624Z,13.50
2018-05-01T00:42:12.873Z,13.40
2018-05-01T00:44:41.182Z,13.50
2018-05-01T00:47:09.423Z,13.50
2018-05-01T00:49:37.736Z,13.50
2018-05-01T00:52:06.007Z,13.50
2018-05-01T00:54:34.263Z,13.50
2018-05-01T00:57:02.515Z,13.50
2018-05-01T00:59:30.775Z,13.30
2018-05-01T01:01:59.837Z,13.30
2018-05-01T01:04:28.132Z,13.30
2018-05-01T01:06:56.439Z,13.20
2018-05-01T01:09:24.809Z,13.30
2018-05-01T01:11:53.820Z,13.20
2018-05-01T01:14:22.121Z,13.20
2018-05-01T01:16:50.411Z,13.20
2018-05-01T01:19:18.713Z,13.20
2018-05-01T01:21:47.016Z,13.20
2018-05-01T01:24:16.019Z,13.00
2018-05-01T01:26:44.430Z,13.00
2018-05-01T01:29:12.677Z,13.10
2018-05-01T01:31:40.938Z,13.00
2018-05-01T01:34:09.947Z,13.00
2018-05-01T01:36:37.710Z,13.00
2018-05-01T01:39:05.540Z,13.00
2018-05-01T01:41:33.339Z,13.00
2018-05-01T01:44:01.843Z,12.90
2018-05-01T01:46:29.665Z,12.90
2018-05-01T01:48:57.433Z,12.90
2018-05-01T01:51:25.196Z,12.90
2018-05-01T01:53:53.717Z,12.90
2018-05-01T01:56:21.482Z,12.90
2018-05-01T01:58:49.253Z,12.90
2018-05-01T02:01:17.018Z,12.90
2018-05-01T02:03:44.810Z,12.90
2018-05-01T02:06:12.616Z,12.90
2018-05-01T02:08:41.150Z,12.80
2018-05-01T02:11:08.895Z,12.80
2018-05-01T02:13:36.660Z,12.90
2018-05-01T02:16:04.455Z,12.80
2018-05-01T02:18:32.269Z,12.80
2018-05-01T02:21:00.788Z,12.80
2018-05-01T02:23:28.559Z,12.80
2018-05-01T02:25:56.351Z,12.80
2018-05-01T02:28:24.145Z,12.80
2018-05-01T02:30:52.676Z,12.80
2018-05-01T02:33:20.490Z,12.70
2018-05-01T02:35:49.022Z,12.70
2018-05-01T02:38:16.798Z,12.70
2018-05-01T02:40:44.592Z,12.70
2018-05-01T02:43:12.376Z,12.70
2018-05-01T02:45:40.901Z,12.80
2018-05-01T02:48:08.675Z,12.70
2018-05-01T02:50:36.485Z,12.80
2018-05-01T02:53:05.008Z,12.80
2018-05-01T02:55:32.815Z,12.80
2018-05-01T02:58:01.396Z,12.80
2018-05-01T03:00:30.669Z,12.80
2018-05-01T03:02:58.427Z,12.80
2018-05-01T03:05:26.247Z,12.70
2018-05-01T03:07:54.768Z,12.80
2018-05-01T03:10:22.562Z,12.80
2018-05-01T03:12:50.365Z,12.80
2018-05-01T03:15:18.894Z,12.80
2018-05-01T03:17:46.690Z,12.80
2018-05-01T03:20:14.509Z,12.90
2018-05-01T03:22:42.315Z,12.90
2018-05-01T03:25:10.069Z,13.00
2018-05-01T03:27:37.856Z,12.90
2018-05-01T03:30:05.599Z,12.90
2018-05-01T03:32:33.428Z,12.90
2018-05-01T03:35:01.221Z,12.90
2018-05-01T03:37:29.027Z,12.90
2018-05-01T03:39:56.782Z,12.90
2018-05-01T03:42:24.545Z,12.90
2018-05-01T03:44:52.312Z,12.90
2018-05-01T03:47:20.142Z,12.80
2018-05-01T03:49:47.885Z,12.80
2018-05-01T03:52:15.650Z,12.90
2018-05-01T03:54:44.229Z,13.00
2018-05-01T03:57:12.768Z,13.00
2018-05-01T03:59:40.618Z,13.00
2018-05-01T04:02:08.405Z,13.00
2018-05-01T04:04:36.211Z,13.00
2018-05-01T04:07:04.774Z,13.00
2018-05-01T04:09:32.577Z,13.00
2018-05-01T04:12:00.324Z,13.00
2018-05-01T04:14:28.104Z,13.00
2018-05-01T04:16:55.900Z,13.00
2018-05-01T04:19:23.669Z,12.90
2018-05-01T04:21:51.422Z,13.00
2018-05-01T04:24:19.207Z,12.90
2018-05-01T04:26:46.971Z,13.00
2018-05-01T04:29:14.744Z,13.00
2018-05-01T04:31:42.533Z,13.00
2018-05-01T04:34:11.081Z,12.90
2018-05-01T04:36:38.875Z,12.90
2018-05-01T04:39:06.670Z,12.90
2018-05-01T04:41:35.241Z,12.80
2018-05-01T04:44:03.802Z,12.80
2018-05-01T04:46:33.074Z,12.80
2018-05-01T04:49:00.836Z,12.80
2018-05-01T04:51:28.622Z,12.80
2018-05-01T04:53:56.389Z,12.70
2018-05-01T04:56:24.187Z,12.70
2018-05-01T04:58:52.756Z,12.60
2018-05-01T05:01:20.556Z,12.70
2018-05-01T05:03:48.427Z,12.60
2018-05-01T05:06:16.201Z,12.60
2018-05-01T05:08:43.959Z,12.50
2018-05-01T05:11:11.756Z,12.50
2018-05-01T05:13:39.553Z,12.50
2018-05-01T05:16:07.323Z,12.40
2018-05-01T05:18:35.861Z,12.40
2018-05-01T05:21:03.657Z,12.40
2018-05-01T05:23:31.424Z,12.40
2018-05-01T05:25:59.207Z,12.30
2018-05-01T05:28:27.736Z,12.20
2018-05-01T05:30:55.507Z,12.20
2018-05-01T05:33:23.311Z,12.20
2018-05-01T05:35:51.110Z,12.10
2018-05-01T05:38:18.878Z,12.10
2018-05-01T05:40:46.639Z,12.20
2018-05-01T05:43:14.458Z,12.10
2018-05-01T05:45:43.731Z,12.10
2018-05-01T05:48:11.538Z,12.10
2018-05-01T05:50:39.375Z,12.10
2018-05-01T05:53:07.157Z,12.10
2018-05-01T05:55:34.984Z,12.00
2018-05-01T05:58:02.748Z,12.00
2018-05-01T06:00:30.630Z,12.00
2018-05-01T06:02:58.391Z,12.00
2018-05-01T06:05:26.199Z,12.00
2018-05-01T06:07:53.976Z,12.00
2018-05-01T06:10:22.552Z,12.00
2018-05-01T06:12:50.308Z,12.00
2018-05-01T06:15:18.063Z,12.00
2018-05-01T06:17:45.870Z,12.10
2018-05-01T06:20:14.435Z,12.10
2018-05-01T06:22:42.243Z,12.10
2018-05-01T06:25:10.044Z,12.10
2018-05-01T06:27:37.826Z,12.20
2018-05-01T06:30:05.573Z,12.20
2018-05-01T06:32:33.344Z,12.20
2018-05-01T06:35:01.134Z,12.20
2018-05-01T06:37:28.892Z,12.20
2018-05-01T06:39:56.654Z,12.20
2018-05-01T06:42:24.447Z,12.20
2018-05-01T06:44:52.975Z,12.10
2018-05-01T06:47:20.758Z,12.10
2018-05-01T06:49:48.513Z,12.10
2018-05-01T06:52:16.317Z,12.10
2018-05-01T06:54:44.101Z,12.10
2018-05-01T06:57:11.910Z,12.00
2018-05-01T06:59:39.671Z,12.00
2018-05-01T07:02:07.479Z,11.90
2018-05-01T07:04:36.076Z,11.90
2018-05-01T07:07:03.823Z,11.90
2018-05-01T07:09:32.405Z,11.80
2018-05-01T07:12:00.157Z,11.80
2018-05-01T07:14:27.919Z,11.80
2018-05-01T07:16:55.671Z,11.80
2018-05-01T07:19:24.224Z,11.70
2018-05-01T07:21:51.993Z,11.70
2018-05-01T07:24:19.813Z,11.70
2018-05-01T07:26:47.624Z,11.70
2018-05-01T07:29:15.441Z,11.70
2018-05-01T07:31:43.255Z,11.70
2018-05-01T07:34:11.028Z,11.60
2018-05-01T07:36:38.835Z,11.60
2018-05-01T07:39:06.599Z,11.50
2018-05-01T07:41:34.421Z,11.40
2018-05-01T07:44:02.200Z,11.40
2018-05-01T07:46:29.997Z,11.40
2018-05-01T07:48:57.832Z,11.40
2018-05-01T07:51:25.575Z,11.30
2018-05-01T07:53:53.324Z,11.30
2018-05-01T07:56:21.127Z,11.30
2018-05-01T07:58:48.927Z,11.30
2018-05-01T08:01:16.794Z,11.30
2018-05-01T08:03:44.588Z,11.20
2018-05-01T08:06:13.160Z,11.30
2018-05-01T08:08:41.769Z,11.30
2018-05-01T08:11:09.557Z,11.30
2018-05-01T08:13:37.425Z,11.30
2018-05-01T08:16:05.190Z,11.20
2018-05-01T08:18:33.051Z,11.20
2018-05-01T08:21:00.798Z,11.10
2018-05-01T08:23:28.606Z,11.10
2018-05-01T08:25:56.367Z,11.10
2018-05-01T08:28:24.153Z,11.20
2018-05-01T08:30:52.001Z,11.20
2018-05-01T08:33:19.777Z,11.20
2018-05-01T08:35:48.362Z,11.20
2018-05-01T08:38:16.188Z,11.20
2018-05-01T08:40:44.001Z,11.30
2018-05-01T08:43:11.884Z,11.30
2018-05-01T08:45:39.676Z,11.40
2018-05-01T08:48:07.462Z,11.40
2018-05-01T08:50:35.342Z,11.20
2018-05-01T08:53:03.136Z,11.10
2018-05-01T08:55:30.934Z,11.00
2018-05-01T08:57:59.453Z,11.00
2018-05-01T09:00:27.287Z,11.00
2018-05-01T09:02:55.858Z,11.20
2018-05-01T09:05:24.440Z,11.20
2018-05-01T09:07:52.962Z,11.20
2018-05-01T09:10:20.755Z,11.20
2018-05-01T09:12:48.579Z,11.40
2018-05-01T09:15:16.409Z,11.40
2018-05-01T09:17:45.796Z,11.40
2018-05-01T09:20:13.554Z,11.40
2018-05-01T09:22:41.369Z,11.50
2018-05-01T09:25:09.871Z,11.70
2018-05-01T09:27:37.693Z,11.60
2018-05-01T09:30:06.211Z,12.00
2018-05-01T09:32:34.034Z,11.90
2018-05-01T09:35:01.802Z,12.10
2018-05-01T09:37:29.578Z,12.20
2018-05-01T09:39:58.143Z,12.40
2018-05-01T09:42:25.916Z,12.40
2018-05-01T09:44:53.687Z,12.50
2018-05-01T09:47:21.467Z,12.50
2018-05-01T09:49:50.038Z,12.60
2018-05-01T09:52:18.301Z,12.60
2018-05-01T09:54:46.539Z,12.70
2018-05-01T09:57:14.795Z,12.80
2018-05-01T09:59:43.111Z,12.90
2018-05-01T10:02:11.406Z,12.90
2018-05-01T10:04:40.790Z,12.80
2018-05-01T10:07:09.062Z,12.90
2018-05-01T10:09:37.299Z,12.90
2018-05-01T10:12:05.570Z,12.90
2018-05-01T10:14:34.615Z,13.10
2018-05-01T10:17:03.105Z,13.10
2018-05-01T10:19:31.431Z,13.10
2018-05-01T10:22:00.519Z,12.90
2018-05-01T10:24:28.804Z,12.90
2018-05-01T10:26:57.869Z,12.90
2018-05-01T10:29:26.123Z,12.90
2018-05-01T10:31:55.248Z,12.90
2018-05-01T10:34:23.559Z,12.90
2018-05-01T10:36:52.624Z,12.80
2018-05-01T10:39:20.933Z,12.70
2018-05-01T10:41:49.969Z,12.70
2018-05-01T10:44:18.214Z,12.70
2018-05-01T10:46:46.539Z,12.90
2018-05-01T10:49:14.847Z,13.10
2018-05-01T10:51:43.914Z,13.60
2018-05-01T10:54:12.222Z,13.50
2018-05-01T10:56:47.335Z,13.80
2018-05-01T10:59:15.601Z,14.10
2018-05-01T11:01:43.883Z,14.30
2018-05-01T11:04:12.120Z,14.50
2018-05-01T11:06:41.883Z,14.70
2018-05-01T11:09:10.396Z,14.70
2018-05-01T11:11:39.456Z,14.70
2018-05-01T11:14:07.563Z,14.60
2018-05-01T11:16:36.593Z,14.60
2018-05-01T11:19:04.873Z,14.60
2018-05-01T11:21:33.155Z,14.70
2018-05-01T11:24:01.456Z,14.90
2018-05-01T11:26:29.715Z,15.10
2018-05-01T11:28:58.002Z,15.20
2018-05-01T11:31:26.356Z,15.40
2018-05-01T11:33:54.628Z,15.50
2018-05-01T11:36:22.952Z,15.70
2018-05-01T11:38:51.215Z,15.70
2018-05-01T11:41:19.585Z,15.90
2018-05-01T11:43:47.872Z,16.00
2018-05-01T11:46:16.149Z,16.10
2018-05-01T11:48:45.568Z,16.00
2018-05-01T11:51:13.918Z,16.00
2018-05-01T11:53:42.270Z,15.90
2018-05-01T11:56:12.114Z,15.90
2018-05-01T11:58:40.393Z,15.90
2018-05-01T12:01:08.645Z,15.70
2018-05-01T12:03:36.928Z,15.70
2018-05-01T12:06:05.219Z,15.70
2018-05-01T12:08:33.489Z,15.80
2018-05-01T12:11:01.763Z,16.00
2018-05-01T12:13:30.029Z,16.30
2018-05-01T12:15:58.323Z,16.60
2018-05-01T12:18:26.621Z,16.80
2018-05-01T12:20:56.473Z,17.20
2018-05-01T12:23:25.551Z,17.40
2018-05-01T12:25:53.826Z,17.40
2018-05-01T12:28:23.648Z,17.60
2018-05-01T12:30:53.163Z,17.80
2018-05-01T12:33:22.190Z,18.00
2018-05-01T12:35:50.455Z,18.00
2018-05-01T12:38:18.721Z,18.30
2018-05-01T12:40:47.749Z,18.90
2018-05-01T12:43:16.049Z,18.90
2018-05-01T12:45:44.327Z,19.60
2018-05-01T12:48:12.744Z,19.90
2018-05-01T12:50:41.667Z,20.10
2018-05-01T12:53:09.966Z,19.70
2018-05-01T12:55:38.263Z,19.50
2018-05-01T12:58:06.550Z,19.70
2018-05-01T13:00:34.873Z,19.80
2018-05-01T13:03:03.186Z,19.80
2018-05-01T13:05:31.479Z,20.00
2018-05-01T13:07:59.767Z,20.10
2018-05-01T13:10:28.053Z,20.20
2018-05-01T13:12:57.116Z,20.40
2018-05-01T13:15:25.357Z,20.40
2018-05-01T13:17:54.588Z,20.40
2018-05-01T13:20:22.825Z,20.40
2018-05-01T13:22:51.179Z,19.70
2018-05-01T13:25:19.498Z,20.00
2018-05-01T13:27:47.789Z,19.80
2018-05-01T13:30:16.101Z,20.00
2018-05-01T13:32:44.432Z,20.20
2018-05-01T13:35:12.674Z,20.00
2018-05-01T13:37:40.988Z,20.10
2018-05-01T13:40:09.401Z,19.50
2018-05-01T13:42:37.636Z,19.30
2018-05-01T13:45:05.987Z,19.10
2018-05-01T13:47:35.875Z,19.70
2018-05-01T13:50:04.183Z,19.70
2018-05-01T13:52:33.267Z,19.60
2018-05-01T13:55:01.524Z,19.60
2018-05-01T13:57:29.892Z,19.70
2018-05-01T13:59:58.110Z,20.10
2018-05-01T14:02:27.131Z,20.60
2018-05-01T14:04:55.418Z,20.60
2018-05-01T14:07:23.778Z,20.20
2018-05-01T14:09:52.031Z,20.50
2018-05-01T14:12:21.118Z,20.50
2018-05-01T14:14:49.408Z,20.50
2018-05-01T14:17:18.445Z,21.30
2018-05-01T14:19:46.770Z,21.30
2018-05-01T14:22:15.072Z,21.60
2018-05-01T14:24:43.327Z,21.80
2018-05-01T14:27:12.363Z,22.30
2018-05-01T14:29:40.988Z,22.30
2018-05-01T14:32:09.273Z,22.20
2018-05-01T14:34:37.600Z,22.50
2018-05-01T14:37:05.881Z,21.80
2018-05-01T14:39:34.166Z,22.20
2018-05-01T14:42:02.496Z,23.00
2018-05-01T14:44:30.786Z,23.80
2018-05-01T14:46:59.802Z,25.00
2018-05-01T14:49:28.110Z,24.90
2018-05-01T14:51:56.380Z,25.40
2018-05-01T14:54:24.634Z,25.70
2018-05-01T14:56:52.904Z,25.90
2018-05-01T14:59:21.158Z,25.50
2018-05-01T15:01:50.192Z,24.00
2018-05-01T15:04:18.441Z,24.00
2018-05-01T15:06:47.478Z,24.20
2018-05-01T15:09:15.776Z,24.20
2018-05-01T15:11:44.043Z,24.30
2018-05-01T15:14:12.295Z,24.30
2018-05-01T15:16:40.598Z,24.30
2018-05-01T15:19:08.852Z,24.20
2018-05-01T15:21:37.152Z,24.00
2018-05-01T15:24:05.482Z,23.80
2018-05-01T15:26:33.778Z,23.50
2018-05-01T15:29:02.115Z,23.30
2018-05-01T15:31:30.413Z,23.00
2018-05-01T15:33:59.502Z,22.60
2018-05-01T15:36:28.550Z,22.50
2018-05-01T15:38:56.810Z,22.50
2018-05-01T15:41:26.043Z,22.40
2018-05-01T15:43:54.334Z,22.30
2018-05-01T15:46:22.585Z,22.20
2018-05-01T15:48:50.831Z,22.10
2018-05-01T15:51:19.133Z,22.10
2018-05-01T15:53:47.396Z,21.90
2018-05-01T15:56:15.663Z,21.90
2018-05-01T15:58:43.928Z,21.90
2018-05-01T16:01:12.233Z,22.00
2018-05-01T16:03:41.156Z,21.80
2018-05-01T16:06:09.407Z,21.90
2018-05-01T16:08:37.693Z,21.80
2018-05-01T16:11:05.962Z,21.90
2018-05-01T16:13:34.266Z,21.90
2018-05-01T16:16:02.552Z,21.90
2018-05-01T16:18:30.831Z,21.80
2018-05-01T16:20:59.154Z,21.80
2018-05-01T16:23:27.455Z,21.60
2018-05-01T16:25:55.731Z,21.40
2018-05-01T16:28:23.988Z,21.20
2018-05-01T16:30:52.252Z,21.10
2018-05-01T16:33:21.448Z,21.00
2018-05-01T16:35:49.740Z,20.70
2018-05-01T16:38:18.032Z,20.70
2018-05-01T16:40:46.310Z,20.70
2018-05-01T16:43:14.565Z,20.60
2018-05-01T16:45:42.887Z,20.40
2018-05-01T16:48:11.153Z,20.40
2018-05-01T16:50:39.390Z,20.50
2018-05-01T16:53:07.686Z,20.50
2018-05-01T16:55:35.929Z,20.40
2018-05-01T16:58:05.014Z,20.20
2018-05-01T17:00:33.272Z,20.10
2018-05-01T17:03:01.522Z,20.00
2018-05-01T17:05:29.816Z,19.90
2018-05-01T17:07:58.083Z,19.80
2018-05-01T17:10:26.376Z,19.60
2018-05-01T17:12:54.737Z,19.50
2018-05-01T17:15:23.750Z,19.30
2018-05-01T17:17:51.980Z,19.20
2018-05-01T17:20:20.254Z,19.10
2018-05-01T17:22:48.555Z,18.90
2018-05-01T17:25:16.835Z,18.80
2018-05-01T17:27:45.112Z,18.70
2018-05-01T17:30:13.385Z,18.50
2018-05-01T17:32:42.475Z,18.40
2018-05-01T17:35:10.747Z,18.20
2018-05-01T17:37:38.992Z,18.10
2018-05-01T17:40:08.063Z,17.80
2018-05-01T17:42:36.413Z,17.80
2018-05-01T17:45:04.669Z,17.70
2018-05-01T17:47:32.991Z,17.50
2018-05-01T17:50:01.284Z,17.40
2018-05-01T17:52:29.588Z,17.30
2018-05-01T17:54:58.622Z,17.10
2018-05-01T17:57:26.942Z,17.10
2018-05-01T17:59:55.151Z,17.00
2018-05-01T18:02:23.402Z,17.00
2018-05-01T18:04:52.496Z,16.80
2018-05-01T18:07:22.442Z,16.80
2018-05-01T18:09:50.790Z,16.70
2018-05-01T18:12:19.832Z,16.70
2018-05-01T18:14:48.126Z,16.60
2018-05-01T18:17:16.377Z,16.60
2018-05-01T18:19:44.692Z,16.50
2018-05-01T18:22:12.951Z,16.50
2018-05-01T18:24:41.207Z,16.40
2018-05-01T18:27:09.472Z,16.40
2018-05-01T18:29:37.739Z,16.30
2018-05-01T18:32:05.998Z,16.20
2018-05-01T18:34:34.240Z,16.20
2018-05-01T18:37:02.562Z,16.10
2018-05-01T18:39:31.610Z,16.00
2018-05-01T18:41:59.914Z,16.00
2018-05-01T18:44:28.201Z,15.90
2018-05-01T18:46:57.255Z,15.70
2018-05-01T18:49:25.570Z,15.60
2018-05-01T18:51:53.819Z,15.50
2018-05-01T18:54:22.116Z,15.40
2018-05-01T18:56:50.411Z,15.20
2018-05-01T18:59:18.647Z,15.10
2018-05-01T19:01:46.917Z,15.00
2018-05-01T19:04:15.197Z,14.90
2018-05-01T19:06:43.535Z,14.70
2018-05-01T19:09:12.536Z,14.50
2018-05-01T19:11:40.885Z,14.40
2018-05-01T19:14:09.174Z,14.30
2018-05-01T19:16:38.233Z,14.10
2018-05-01T19:19:06.541Z,14.20
2018-05-01T19:21:35.566Z,14.00
2018-05-01T19:24:03.868Z,14.00
2018-05-01T19:26:32.113Z,14.00
2018-05-01T19:29:00.371Z,13.90
2018-05-01T19:31:29.438Z,13.60
2018-05-01T19:33:57.689Z,13.60
2018-05-01T19:36:25.949Z,13.50
2018-05-01T19:38:54.210Z,13.40
2018-05-01T19:41:23.246Z,13.20
2018-05-01T19:43:52.344Z,13.20
2018-05-01T19:46:20.671Z,13.20
2018-05-01T19:48:49.992Z,13.10
2018-05-01T19:51:18.336Z,13.10
2018-05-01T19:53:46.659Z,13.10
2018-05-01T19:56:14.911Z,13.00
2018-05-01T19:58:44.310Z,12.80
2018-05-01T20:01:13.574Z,12.70
2018-05-01T20:03:41.886Z,12.70
2018-05-01T20:06:11.948Z,12.50
2018-05-01T20:08:40.345Z,12.50
2018-05-01T20:11:08.828Z,12.40
2018-05-01T20:13:37.128Z,12.40
2018-05-01T20:16:05.446Z,12.30
2018-05-01T20:18:33.830Z,12.20
2018-05-01T20:21:02.145Z,12.10
2018-05-01T20:23:30.465Z,12.00
2018-05-01T20:25:59.474Z,11.80
2018-05-01T20:28:27.764Z,11.70
2018-05-01T20:30:56.039Z,11.70
2018-05-01T20:33:24.285Z,11.40
2018-05-01T20:35:53.333Z,11.20
2018-05-01T20:38:21.612Z,11.10
2018-05-01T20:40:50.644Z,11.20
2018-05-01T20:43:18.938Z,11.10
2018-05-01T20:45:47.944Z,10.90
2018-05-01T20:48:16.227Z,10.90
2018-05-01T20:50:44.519Z,10.80
2018-05-01T20:53:13.624Z,10.70
2018-05-01T20:55:41.867Z,10.50
2018-05-01T20:58:10.195Z,10.40
2018-05-01T21:00:38.521Z,10.50
2018-05-01T21:03:07.523Z,10.40
2018-05-01T21:05:35.859Z,10.40
2018-05-01T21:08:04.170Z,10.30
2018-05-01T21:10:33.239Z,10.20
2018-05-01T21:13:01.513Z,10.10
2018-05-01T21:15:29.813Z,10.10
2018-05-01T21:17:58.836Z,10.00
2018-05-01T21:20:27.109Z,10.00
2018-05-01T21:22:55.388Z,9.90
2018-05-01T21:25:23.660Z,9.90
2018-05-01T21:27:51.898Z,9.80
2018-05-01T21:30:20.934Z,9.80
2018-05-01T21:32:49.234Z,9.70
2018-05-01T21:35:17.462Z,9.80
2018-05-01T21:37:46.483Z,9.70
2018-05-01T21:40:14.714Z,9.60
2018-05-01T21:42:43.020Z,9.60
2018-05-01T21:45:12.067Z,9.60
2018-05-01T21:47:40.308Z,9.60
2018-05-01T21:50:08.627Z,9.60
2018-05-01T21:52:36.879Z,9.50
2018-05-01T21:55:05.124Z,9.50
2018-05-01T21:57:33.377Z,9.40
2018-05-01T22:00:01.632Z,9.30
2018-05-01T22:02:30.668Z,9.00
2018-05-01T22:04:59.682Z,9.00
2018-05-01T22:07:28.001Z,9.00
2018-05-01T22:09:56.278Z,9.00
2018-05-01T22:12:24.522Z,8.90
2018-05-01T22:14:52.791Z,8.90
2018-05-01T22:17:21.080Z,8.80
2018-05-01T22:19:49.357Z,8.70
2018-05-01T22:22:17.655Z,8.60
2018-05-01T22:24:45.883Z,8.60
2018-05-01T22:27:14.147Z,8.50
2018-05-01T22:29:43.193Z,8.40
2018-05-01T22:32:11.525Z,8.40
2018-05-01T22:34:40.531Z,8.30
2018-05-01T22:37:09.568Z,8.30
2018-05-01T22:39:37.818Z,8.20
2018-05-01T22:42:06.112Z,8.20
2018-05-01T22:44:34.338Z,8.20
2018-05-01T22:47:03.433Z,8.10
2018-05-01T22:49:31.675Z,8.10
2018-05-01T22:51:59.971Z,8.10
2018-05-01T22:54:28.218Z,8.00
2018-05-01T22:56:56.461Z,8.00
2018-05-01T22:59:24.723Z,7.90
2018-05-01T23:01:53.715Z,7.80
2018-05-01T23:04:22.766Z,7.80
2018-05-01T23:06:51.043Z,7.80
2018-05-01T23:09:19.381Z,7.80
2018-05-01T23:11:48.418Z,7.80
2018-05-01T23:14:16.653Z,7.70
2018-05-01T23:16:44.928Z,7.70
2018-05-01T23:19:13.998Z,7.60
2018-05-01T23:21:42.217Z,7.60
2018-05-01T23:24:10.512Z,7.50
2018-05-01T23:26:38.798Z,7.50
2018-05-01T23:29:07.313Z,7.40
2018-05-01T23:31:35.580Z,7.40
2018-05-01T23:34:03.825Z,7.40
2018-05-01T23:36:32.106Z,7.30
2018-05-01T23:39:00.343Z,7.20
2018-05-01T23:41:29.406Z,7.10
2018-05-01T23:43:57.686Z,7.10
2018-05-01T23:46:25.949Z,7.10
2018-05-01T23:48:54.230Z,7.00
2018-05-01T23:51:22.481Z,7.00
2018-05-01T23:53:50.757Z,7.00
2018-05-01T23:56:19.024Z,7.00
2018-05-01T23:58:47.313Z,7.00
